Time;durP1;ratioP1;P1;durP2;ratioP2;P2;SDS_P1;SDS_P2;PMS_P1;PMS_P2;Temp;Humidity;BMP_temperature;BMP_pressure;BME280_temperature;BME280_humidity;BME280_pressure;Samples;Min_cycle;Max_cycle;Signal;HPM_P1;HPM_P2
2024/01/31 00:01:42;;;;;;;5.40;1.20;;;;;;;;;;5013690;28;20473;-81
2024/01/31 00:04:09;;;;;;;4.50;1.50;;;;;;;;;;5032811;28;20985;-79
2024/01/31 00:06:38;;;;;;;4.00;1.27;;;;;;;;;;5003754;28;20506;-79
2024/01/31 00:09:04;;;;;;;2.33;1.10;;;;;;;;;;4990102;28;20477;-78
2024/01/31 00:11:30;;;;;;;3.77;1.50;;;;;;;;;;4977535;28;20579;-81
2024/01/31 00:13:58;;;;;;;2.30;1.30;;;;;;;;;;4967960;28;20500;-82
2024/01/31 00:16:25;;;;;;;6.83;1.20;;;;;;;;;;4983432;28;20471;-79
2024/01/31 00:18:51;;;;;;;5.60;1.10;;;;;;;;;;4992957;28;20497;-79
2024/01/31 00:21:17;;;;;;;11.70;1.43;;;;;;;;;;5021129;28;20475;-77
2024/01/31 00:23:45;;;;;;;5.40;1.40;;;;;;;;;;5023879;28;20476;-79
2024/01/31 00:26:12;;;;;;;2.70;0.90;;;;;;;;;;5017406;28;20473;-79
2024/01/31 00:28:39;;;;;;;4.53;1.90;;;;;;;;;;5009632;28;20544;-80
2024/01/31 00:31:05;;;;;;;3.30;1.43;;;;;;;;;;5006881;28;20478;-80
2024/01/31 00:33:31;;;;;;;4.90;1.00;;;;;;;;;;5000006;28;20478;-79
2024/01/31 00:35:58;;;;;;;3.07;2.00;;;;;;;;;;4983842;28;20561;-79
2024/01/31 00:38:24;;;;;;;6.40;1.30;;;;;;;;;;4994470;28;21007;-79
2024/01/31 00:40:54;;;;;;;1.33;1.00;;;;;;;;;;4990324;28;20479;-79
2024/01/31 00:43:21;;;;;;;1.80;0.90;;;;;;;;;;4996934;28;20240;-79
2024/01/31 00:45:49;;;;;;;2.08;1.00;;;;;;;;;;5012488;28;20487;-79
2024/01/31 00:48:15;;;;;;;7.53;1.10;;;;;;;;;;5022062;28;20242;-81
2024/01/31 00:50:43;;;;;;;2.73;1.10;;;;;;;;;;5017304;28;20590;-79
2024/01/31 00:53:09;;;;;;;3.77;1.50;;;;;;;;;;5012528;28;20471;-80
2024/01/31 00:55:36;;;;;;;4.67;1.07;;;;;;;;;;5025355;28;20851;-79
2024/01/31 00:58:04;;;;;;;2.77;1.43;;;;;;;;;;5016652;28;20977;-79
2024/01/31 01:00:30;;;;;;;3.50;1.50;;;;;;;;;;5004873;28;20512;-81
2024/01/31 01:02:57;;;;;;;3.70;1.27;;;;;;;;;;5004291;28;20577;-79
2024/01/31 01:05:23;;;;;;;5.43;1.47;;;;;;;;;;5016105;28;20683;-81
2024/01/31 01:07:50;;;;;;;6.50;1.13;;;;;;;;;;5029931;28;20471;-79
2024/01/31 01:10:17;;;;;;;4.83;1.17;;;;;;;;;;5020267;28;20469;-79
2024/01/31 01:12:43;;;;;;;6.50;1.30;;;;;;;;;;5029919;28;20462;-80
2024/01/31 01:15:11;;;;;;;6.03;1.40;;;;;;;;;;5020741;28;20850;-79
2024/01/31 01:17:38;;;;;;;8.27;1.40;;;;;;;;;;5018676;28;20493;-82
2024/01/31 01:20:05;;;;;;;11.43;1.47;;;;;;;;;;5012863;28;20505;-79
2024/01/31 01:22:32;;;;;;;3.27;1.33;;;;;;;;;;5006696;28;20474;-80
2024/01/31 01:24:58;;;;;;;2.80;1.70;;;;;;;;;;5017892;28;20454;-79
2024/01/31 01:27:25;;;;;;;3.40;1.13;;;;;;;;;;5013478;28;20567;-79
2024/01/31 01:29:52;;;;;;;3.40;1.00;;;;;;;;;;5017062;28;20222;-79
2024/01/31 01:32:19;;;;;;;5.53;1.23;;;;;;;;;;5011484;28;20465;-79
2024/01/31 01:34:48;;;;;;;2.60;1.15;;;;;;;;;;5013550;28;20843;-79
2024/01/31 01:37:14;;;;;;;5.07;1.87;;;;;;;;;;4983526;28;20239;-86
2024/01/31 01:39:45;;;;;;;4.72;1.17;;;;;;;;;;5011515;28;20504;-79
2024/01/31 01:42:12;;;;;;;4.70;1.27;;;;;;;;;;5017921;28;20619;-81
2024/01/31 01:44:43;;;;;;;3.17;1.27;;;;;;;;;;5029746;28;20466;-79
2024/01/31 01:47:10;;;;;;;5.20;1.10;;;;;;;;;;5020136;28;21012;-79
2024/01/31 01:49:38;;;;;;;5.00;1.20;;;;;;;;;;5024681;28;20487;-79
2024/01/31 01:52:05;;;;;;;1.63;1.20;;;;;;;;;;5009149;28;20575;-79
2024/01/31 01:54:32;;;;;;;4.87;1.67;;;;;;;;;;5020013;28;20902;-79
2024/01/31 01:56:59;;;;;;;6.53;2.00;;;;;;;;;;5002332;28;20465;-79
2024/01/31 01:59:25;;;;;;;2.23;1.40;;;;;;;;;;5020734;28;20532;-79
2024/01/31 02:01:53;;;;;;;5.80;1.60;;;;;;;;;;5006067;28;20550;-80
2024/01/31 02:04:20;;;;;;;2.57;1.13;;;;;;;;;;5025299;28;20801;-79
2024/01/31 02:06:49;;;;;;;10.70;1.20;;;;;;;;;;5022003;28;20463;-79
2024/01/31 02:09:15;;;;;;;3.33;2.00;;;;;;;;;;5016000;28;20587;-79
2024/01/31 02:11:42;;;;;;;2.60;1.30;;;;;;;;;;4998546;28;20566;-79
2024/01/31 02:14:08;;;;;;;4.20;1.43;;;;;;;;;;4979843;28;20907;-80
2024/01/31 02:16:34;;;;;;;2.90;1.50;;;;;;;;;;4974635;28;20566;-79
2024/01/31 02:19:01;;;;;;;8.00;1.67;;;;;;;;;;4995226;28;20492;-79
2024/01/31 02:21:28;;;;;;;7.57;1.90;;;;;;;;;;5004386;28;20571;-79
2024/01/31 02:23:56;;;;;;;8.10;1.47;;;;;;;;;;5010141;28;20474;-79
2024/01/31 02:26:22;;;;;;;5.20;1.93;;;;;;;;;;5013972;28;20494;-81
2024/01/31 02:28:51;;;;;;;4.57;1.57;;;;;;;;;;5025979;28;21932;-78
2024/01/31 02:31:17;;;;;;;2.07;1.30;;;;;;;;;;4993856;28;20473;-79
2024/01/31 02:33:45;;;;;;;11.33;1.77;;;;;;;;;;5007692;28;20580;-80
2024/01/31 02:36:12;;;;;;;7.17;1.27;;;;;;;;;;5005360;28;20557;-79
2024/01/31 02:38:39;;;;;;;5.17;2.03;;;;;;;;;;5004550;28;20460;-79
2024/01/31 02:41:08;;;;;;;3.07;1.60;;;;;;;;;;5015029;28;20492;-79
2024/01/31 02:43:34;;;;;;;3.70;1.95;;;;;;;;;;4987998;28;20503;-81
2024/01/31 02:46:01;;;;;;;6.10;1.60;;;;;;;;;;4988239;28;20652;-79
2024/01/31 02:48:27;;;;;;;6.90;1.60;;;;;;;;;;5007789;28;20556;-79
2024/01/31 02:50:54;;;;;;;3.47;1.77;;;;;;;;;;4983274;28;20464;-80
2024/01/31 02:53:20;;;;;;;2.53;1.77;;;;;;;;;;5013110;28;20560;-79
2024/01/31 02:55:46;;;;;;;4.70;2.07;;;;;;;;;;5003639;28;20479;-79
2024/01/31 02:58:14;;;;;;;4.80;2.00;;;;;;;;;;5000301;28;20482;-79
2024/01/31 03:00:41;;;;;;;6.20;1.80;;;;;;;;;;5010855;28;20499;-79
2024/01/31 03:03:07;;;;;;;5.57;1.63;;;;;;;;;;5002781;28;20499;-79
2024/01/31 03:05:34;;;;;;;6.80;1.53;;;;;;;;;;5019888;28;20476;-79
2024/01/31 03:08:00;;;;;;;6.33;1.80;;;;;;;;;;5005799;28;20459;-80
2024/01/31 03:10:27;;;;;;;6.43;1.80;;;;;;;;;;5011783;28;20472;-79
2024/01/31 03:12:53;;;;;;;10.03;1.80;;;;;;;;;;5004362;28;20474;-79
2024/01/31 03:15:21;;;;;;;5.50;2.03;;;;;;;;;;5010023;28;20552;-81
2024/01/31 03:17:48;;;;;;;2.07;1.40;;;;;;;;;;4998900;28;21021;-79
2024/01/31 03:20:14;;;;;;;8.60;1.97;;;;;;;;;;5009886;28;20500;-83
2024/01/31 03:22:42;;;;;;;6.43;2.10;;;;;;;;;;5017893;28;20476;-79
2024/01/31 03:25:09;;;;;;;8.23;2.50;;;;;;;;;;5020624;28;20859;-79
2024/01/31 03:27:35;;;;;;;12.00;3.00;;;;;;;;;;5011325;28;20475;-79
2024/01/31 03:30:02;;;;;;;5.23;2.20;;;;;;;;;;5012904;28;21181;-79
2024/01/31 03:32:32;;;;;;;11.17;3.67;;;;;;;;;;5016773;28;20474;-80
2024/01/31 03:34:59;;;;;;;5.00;1.67;;;;;;;;;;5006933;28;20499;-79
2024/01/31 03:37:25;;;;;;;7.53;2.60;;;;;;;;;;4996981;28;20529;-80
2024/01/31 03:39:51;;;;;;;3.47;1.53;;;;;;;;;;5004822;28;20585;-81
2024/01/31 03:42:18;;;;;;;1.92;1.38;;;;;;;;;;5025793;28;20474;-79
2024/01/31 03:44:44;;;;;;;2.20;1.80;;;;;;;;;;5035465;28;20709;-79
2024/01/31 03:47:11;;;;;;;7.00;2.17;;;;;;;;;;5008482;28;20238;-80
2024/01/31 03:49:39;;;;;;;6.72;1.30;;;;;;;;;;5003429;28;20469;-79
2024/01/31 03:52:06;;;;;;;5.83;1.60;;;;;;;;;;5015136;28;20234;-79
2024/01/31 03:54:32;;;;;;;14.77;2.53;;;;;;;;;;5020344;28;20988;-79
2024/01/31 03:56:59;;;;;;;5.80;1.63;;;;;;;;;;5012397;28;20469;-83
2024/01/31 03:59:26;;;;;;;9.13;2.40;;;;;;;;;;5006609;28;20482;-80
2024/01/31 04:01:52;;;;;;;2.93;1.57;;;;;;;;;;5011773;28;20464;-79
2024/01/31 04:04:20;;;;;;;4.30;1.13;;;;;;;;;;5010725;28;20466;-81
2024/01/31 04:06:48;;;;;;;4.40;1.90;;;;;;;;;;5006398;28;21052;-80
2024/01/31 04:09:15;;;;;;;8.80;1.77;;;;;;;;;;5007657;28;20573;-79
2024/01/31 04:11:41;;;;;;;4.83;1.60;;;;;;;;;;5014757;28;20472;-82
2024/01/31 04:14:07;;;;;;;6.03;1.90;;;;;;;;;;5015474;28;20478;-79
2024/01/31 04:16:34;;;;;;;8.07;2.17;;;;;;;;;;5003893;28;20565;-79
2024/01/31 04:19:00;;;;;;;4.93;1.30;;;;;;;;;;5018719;28;20551;-79
2024/01/31 04:21:26;;;;;;;3.27;1.47;;;;;;;;;;5026408;28;20883;-81
2024/01/31 04:23:54;;;;;;;6.70;1.73;;;;;;;;;;5009136;28;20493;-81
2024/01/31 04:26:21;;;;;;;9.70;1.67;;;;;;;;;;5020466;28;20226;-76
2024/01/31 04:28:47;;;;;;;3.37;1.40;;;;;;;;;;5013596;28;20464;-79
2024/01/31 04:31:14;;;;;;;7.43;2.07;;;;;;;;;;5025176;28;20464;-79
2024/01/31 04:33:41;;;;;;;7.35;1.52;;;;;;;;;;5007180;28;20995;-79
2024/01/31 04:36:09;;;;;;;4.40;1.60;;;;;;;;;;5027395;28;20266;-81
2024/01/31 04:38:35;;;;;;;5.83;1.80;;;;;;;;;;5033942;28;20944;-81
2024/01/31 04:41:03;;;;;;;2.57;1.37;;;;;;;;;;5014116;28;20577;-79
2024/01/31 04:43:30;;;;;;;10.80;2.37;;;;;;;;;;5033488;28;20476;-79
2024/01/31 04:45:56;;;;;;;7.93;1.60;;;;;;;;;;4971129;28;20478;-79
2024/01/31 04:48:23;;;;;;;8.93;2.00;;;;;;;;;;5016796;28;20557;-79
2024/01/31 04:50:50;;;;;;;4.80;2.20;;;;;;;;;;5018514;28;20489;-79
2024/01/31 04:53:17;;;;;;;6.10;1.50;;;;;;;;;;5013108;28;20484;-79
2024/01/31 04:55:46;;;;;;;8.17;2.47;;;;;;;;;;5001672;28;21015;-79
2024/01/31 04:58:14;;;;;;;5.97;1.63;;;;;;;;;;5013561;28;20955;-79
2024/01/31 05:00:41;;;;;;;9.03;1.37;;;;;;;;;;5012313;28;20499;-79
2024/01/31 05:03:07;;;;;;;6.10;1.50;;;;;;;;;;5003709;28;20464;-81
2024/01/31 05:05:34;;;;;;;3.60;1.77;;;;;;;;;;5021857;28;20477;-79
2024/01/31 05:08:01;;;;;;;3.50;1.63;;;;;;;;;;5029509;28;20564;-79
2024/01/31 05:10:28;;;;;;;9.47;1.80;;;;;;;;;;4995305;28;20474;-79
2024/01/31 05:12:55;;;;;;;7.03;2.00;;;;;;;;;;5012734;28;20527;-79
2024/01/31 05:15:23;;;;;;;5.60;2.30;;;;;;;;;;5022192;28;20217;-79
2024/01/31 05:17:49;;;;;;;7.33;2.33;;;;;;;;;;5022344;28;20576;-79
2024/01/31 05:20:16;;;;;;;7.07;2.37;;;;;;;;;;4997516;28;20585;-80
2024/01/31 05:22:42;;;;;;;9.43;3.00;;;;;;;;;;5017100;28;20472;-79
2024/01/31 05:25:09;;;;;;;3.40;2.03;;;;;;;;;;4991297;28;20479;-79
2024/01/31 05:27:36;;;;;;;6.20;1.67;;;;;;;;;;5004548;28;20486;-78
2024/01/31 05:30:03;;;;;;;4.45;1.73;;;;;;;;;;5004024;28;20590;-79
2024/01/31 05:32:31;;;;;;;4.17;1.60;;;;;;;;;;5006500;28;20627;-81
2024/01/31 05:34:57;;;;;;;3.57;1.20;;;;;;;;;;5020990;28;20567;-79
2024/01/31 05:37:24;;;;;;;7.85;1.98;;;;;;;;;;5021046;28;20534;-79
2024/01/31 05:39:52;;;;;;;3.50;1.83;;;;;;;;;;5004831;28;20225;-79
2024/01/31 05:42:19;;;;;;;6.20;1.63;;;;;;;;;;4984527;28;20494;-79
2024/01/31 05:44:46;;;;;;;5.13;1.53;;;;;;;;;;4997674;28;20583;-80
2024/01/31 05:47:13;;;;;;;9.70;1.60;;;;;;;;;;4997243;28;20467;-80
2024/01/31 05:49:43;;;;;;;5.47;2.60;;;;;;;;;;5014784;28;21056;-78
2024/01/31 05:52:10;;;;;;;6.63;1.60;;;;;;;;;;4991626;28;20458;-78
2024/01/31 05:54:36;;;;;;;5.57;1.60;;;;;;;;;;4979728;28;20960;-78
2024/01/31 05:57:03;;;;;;;5.17;2.20;;;;;;;;;;4968513;28;20576;-78
2024/01/31 05:59:29;;;;;;;6.10;1.37;;;;;;;;;;4973687;28;20995;-78
2024/01/31 06:01:56;;;;;;;8.13;1.80;;;;;;;;;;4977566;28;20468;-80
2024/01/31 06:04:22;;;;;;;4.80;1.30;;;;;;;;;;4992416;28;20551;-79
2024/01/31 06:06:51;;;;;;;4.63;1.90;;;;;;;;;;4992461;28;20488;-78
2024/01/31 06:09:18;;;;;;;1.50;1.40;;;;;;;;;;5021881;28;20468;-80
2024/01/31 06:11:44;;;;;;;5.53;1.90;;;;;;;;;;5009845;28;20538;-79
2024/01/31 06:14:11;;;;;;;5.37;3.20;;;;;;;;;;5027064;28;20834;-79
2024/01/31 06:16:37;;;;;;;5.07;1.43;;;;;;;;;;5021436;28;20468;-79
2024/01/31 06:19:04;;;;;;;2.43;1.23;;;;;;;;;;5027278;28;20540;-79
2024/01/31 06:21:30;;;;;;;7.23;1.67;;;;;;;;;;5019569;28;20873;-80
2024/01/31 06:23:59;;;;;;;5.53;1.60;;;;;;;;;;5019233;28;20478;-79
2024/01/31 06:26:28;;;;;;;9.00;2.40;;;;;;;;;;5006148;28;20242;-80
2024/01/31 06:28:55;;;;;;;5.20;1.37;;;;;;;;;;5014361;28;20477;-78
2024/01/31 06:31:27;;;;;;;6.43;1.87;;;;;;;;;;5025653;28;20552;-78
2024/01/31 06:33:54;;;;;;;4.10;1.87;;;;;;;;;;5000935;28;20480;-79
2024/01/31 06:36:21;;;;;;;2.70;1.37;;;;;;;;;;4991431;28;20486;-77
2024/01/31 06:38:48;;;;;;;7.77;1.30;;;;;;;;;;4995464;28;20466;-78
2024/01/31 06:41:17;;;;;;;5.20;1.70;;;;;;;;;;4981266;28;20499;-79
2024/01/31 06:43:44;;;;;;;2.73;1.83;;;;;;;;;;5011713;28;20470;-78
2024/01/31 06:46:11;;;;;;;13.40;1.90;;;;;;;;;;5004525;28;20500;-78
2024/01/31 06:48:37;;;;;;;4.70;1.93;;;;;;;;;;4994882;28;20466;-78
2024/01/31 06:51:04;;;;;;;6.07;1.77;;;;;;;;;;5004821;28;20976;-79
2024/01/31 06:53:31;;;;;;;3.40;1.30;;;;;;;;;;5015379;28;20305;-78
2024/01/31 06:55:59;;;;;;;7.00;2.40;;;;;;;;;;5003451;28;20477;-83
2024/01/31 06:58:27;;;;;;;4.20;1.50;;;;;;;;;;5000865;28;20843;-78
2024/01/31 07:00:57;;;;;;;2.50;1.87;;;;;;;;;;4995489;28;20490;-78
2024/01/31 07:03:24;;;;;;;5.82;1.88;;;;;;;;;;5005646;28;20499;-78
2024/01/31 07:05:50;;;;;;;6.03;2.00;;;;;;;;;;5015337;28;20217;-78
2024/01/31 07:08:17;;;;;;;10.37;1.67;;;;;;;;;;5013544;28;21004;-78
2024/01/31 07:10:46;;;;;;;4.40;1.20;;;;;;;;;;5003645;28;20474;-79
2024/01/31 07:13:13;;;;;;;7.50;1.95;;;;;;;;;;5009967;28;20573;-80
2024/01/31 07:15:41;;;;;;;4.80;1.63;;;;;;;;;;5016677;28;20653;-79
2024/01/31 07:18:08;;;;;;;6.40;1.70;;;;;;;;;;5012873;28;20573;-79
2024/01/31 07:20:34;;;;;;;3.10;1.50;;;;;;;;;;5003927;28;21062;-79
2024/01/31 07:23:01;;;;;;;3.40;1.20;;;;;;;;;;5004195;28;20473;-79
2024/01/31 07:25:27;;;;;;;6.83;1.53;;;;;;;;;;5017585;28;20519;-78
2024/01/31 07:27:53;;;;;;;8.73;1.60;;;;;;;;;;5000283;28;20466;-79
2024/01/31 07:30:20;;;;;;;4.40;1.67;;;;;;;;;;4996544;28;20477;-78
2024/01/31 07:32:48;;;;;;;6.27;2.10;;;;;;;;;;5011478;28;20475;-78
2024/01/31 07:35:14;;;;;;;7.37;1.87;;;;;;;;;;5012433;28;20466;-79
2024/01/31 07:37:43;;;;;;;10.67;1.80;;;;;;;;;;5003068;28;20470;-80
2024/01/31 07:40:10;;;;;;;4.73;2.13;;;;;;;;;;4987705;28;20912;-78
2024/01/31 07:42:37;;;;;;;4.10;1.27;;;;;;;;;;5014798;28;20471;-78
2024/01/31 07:45:04;;;;;;;12.30;2.00;;;;;;;;;;5010403;28;20499;-79
2024/01/31 07:47:30;;;;;;;5.33;1.40;;;;;;;;;;5013472;28;20470;-80
2024/01/31 07:49:59;;;;;;;5.30;1.77;;;;;;;;;;4995051;28;20474;-78
2024/01/31 07:52:25;;;;;;;6.35;1.65;;;;;;;;;;5004373;28;20461;-78
2024/01/31 07:54:51;;;;;;;6.47;1.83;;;;;;;;;;5018757;28;20726;-78
2024/01/31 07:57:18;;;;;;;8.13;1.53;;;;;;;;;;5020300;28;20470;-78
2024/01/31 07:59:44;;;;;;;5.90;1.60;;;;;;;;;;5014322;28;21080;-78
2024/01/31 08:02:11;;;;;;;4.50;1.63;;;;;;;;;;5018397;28;21039;-80
2024/01/31 08:04:37;;;;;;;3.27;1.47;;;;;;;;;;5011741;28;20555;-81
2024/01/31 08:07:05;;;;;;;6.40;1.83;;;;;;;;;;5018732;28;20465;-78
2024/01/31 08:09:32;;;;;;;4.30;2.00;;;;;;;;;;5031580;28;20472;-80
2024/01/31 08:11:58;;;;;;;6.03;1.80;;;;;;;;;;5015395;28;20465;-78
2024/01/31 08:14:24;;;;;;;3.50;2.10;;;;;;;;;;5012371;28;20223;-78
2024/01/31 08:16:51;;;;;;;6.93;1.43;;;;;;;;;;5006896;28;21001;-78
2024/01/31 08:19:18;;;;;;;4.13;1.50;;;;;;;;;;4987788;28;20504;-81
2024/01/31 08:21:44;;;;;;;7.83;1.63;;;;;;;;;;5001058;28;20454;-78
2024/01/31 08:24:14;;;;;;;4.10;1.83;;;;;;;;;;4981283;28;20957;-79
2024/01/31 08:26:44;;;;;;;3.93;1.20;;;;;;;;;;4980715;28;21001;-78
2024/01/31 08:29:10;;;;;;;3.10;1.40;;;;;;;;;;4990878;28;20541;-78
2024/01/31 08:31:37;;;;;;;5.43;1.13;;;;;;;;;;5011175;28;20468;-79
2024/01/31 08:34:04;;;;;;;5.55;2.35;;;;;;;;;;5015068;28;20229;-78
2024/01/31 08:36:30;;;;;;;3.70;1.77;;;;;;;;;;5016103;28;20261;-78
2024/01/31 08:38:57;;;;;;;7.87;1.43;;;;;;;;;;4996413;28;20481;-78
2024/01/31 08:41:25;;;;;;;2.70;2.23;;;;;;;;;;5013394;28;20490;-78
2024/01/31 08:43:51;;;;;;;3.63;2.03;;;;;;;;;;5024598;28;21046;-78
2024/01/31 08:46:17;;;;;;;4.13;1.60;;;;;;;;;;5010707;28;20477;-80
2024/01/31 08:48:43;;;;;;;3.37;1.30;;;;;;;;;;5008570;28;20542;-80
2024/01/31 08:51:10;;;;;;;5.93;1.47;;;;;;;;;;4996539;28;20243;-78
2024/01/31 08:53:36;;;;;;;5.83;1.60;;;;;;;;;;5018177;28;20494;-78
2024/01/31 08:56:03;;;;;;;4.20;1.63;;;;;;;;;;5034600;28;20933;-84
2024/01/31 08:58:31;;;;;;;2.40;1.10;;;;;;;;;;5018944;28;20483;-78
2024/01/31 09:00:59;;;;;;;2.20;1.40;;;;;;;;;;5012139;28;20543;-78
2024/01/31 09:03:26;;;;;;;2.10;1.37;;;;;;;;;;5016316;28;20470;-78
2024/01/31 09:05:52;;;;;;;4.97;1.80;;;;;;;;;;5008661;28;21030;-79
2024/01/31 09:08:18;;;;;;;4.93;1.70;;;;;;;;;;5013995;28;20473;-78
2024/01/31 09:10:46;;;;;;;4.63;2.60;;;;;;;;;;4992723;28;20486;-78
2024/01/31 09:13:13;;;;;;;4.40;1.93;;;;;;;;;;5028374;28;20481;-78
2024/01/31 09:15:41;;;;;;;4.63;1.73;;;;;;;;;;5017272;28;20485;-80
2024/01/31 09:18:07;;;;;;;6.85;2.28;;;;;;;;;;5022282;28;20548;-80
2024/01/31 09:20:34;;;;;;;4.90;2.23;;;;;;;;;;5032152;28;20669;-79
2024/01/31 09:23:01;;;;;;;7.57;1.77;;;;;;;;;;5019298;28;20472;-81
2024/01/31 09:25:27;;;;;;;4.10;2.40;;;;;;;;;;5027712;28;20837;-81
2024/01/31 09:27:58;;;;;;;5.23;1.70;;;;;;;;;;5014475;28;20325;-79
2024/01/31 09:30:25;;;;;;;4.47;1.35;;;;;;;;;;5008078;28;20479;-79
2024/01/31 09:32:53;;;;;;;4.10;1.00;;;;;;;;;;5016128;28;20661;-78
2024/01/31 09:35:20;;;;;;;1.87;1.77;;;;;;;;;;5007917;28;20570;-78
2024/01/31 09:37:47;;;;;;;3.47;1.70;;;;;;;;;;4996403;28;21032;-78
2024/01/31 09:40:15;;;;;;;6.80;1.47;;;;;;;;;;4981511;28;20578;-79
2024/01/31 09:42:42;;;;;;;6.20;1.33;;;;;;;;;;5004832;28;20473;-79
2024/01/31 09:45:10;;;;;;;3.47;1.60;;;;;;;;;;4989556;28;21072;-78
2024/01/31 09:47:37;;;;;;;2.53;1.47;;;;;;;;;;4994640;28;20473;-79
2024/01/31 09:50:05;;;;;;;1.90;1.40;;;;;;;;;;4995569;28;20548;-79
2024/01/31 09:52:35;;;;;;;7.33;1.90;;;;;;;;;;4987032;28;20476;-83
2024/01/31 09:55:04;;;;;;;5.40;1.80;;;;;;;;;;4981035;28;20494;-79
2024/01/31 09:57:31;;;;;;;10.70;2.60;;;;;;;;;;4975568;28;20471;-78
2024/01/31 09:59:57;;;;;;;5.80;2.63;;;;;;;;;;4990522;28;20487;-78
2024/01/31 10:02:25;;;;;;;9.33;1.80;;;;;;;;;;5003805;28;20466;-79
2024/01/31 10:04:52;;;;;;;4.40;1.67;;;;;;;;;;5003455;28;21043;-79
2024/01/31 10:07:29;;;;;;;2.70;1.50;;;;;;;;;;5008417;28;20462;-78
2024/01/31 10:09:57;;;;;;;5.40;2.60;;;;;;;;;;4995097;28;20550;-79
2024/01/31 10:12:26;;;;;;;9.67;2.33;;;;;;;;;;5009588;28;20464;-79
2024/01/31 10:14:55;;;;;;;5.63;2.93;;;;;;;;;;5006518;28;20474;-79
2024/01/31 10:17:21;;;;;;;7.80;2.03;;;;;;;;;;5005447;28;20811;-78
2024/01/31 10:19:49;;;;;;;11.20;1.87;;;;;;;;;;4982808;28;20849;-78
2024/01/31 10:22:15;;;;;;;2.47;1.70;;;;;;;;;;5000913;28;20482;-79
2024/01/31 10:24:46;;;;;;;5.43;2.33;;;;;;;;;;5005001;28;20474;-79
2024/01/31 10:27:14;;;;;;;4.10;1.90;;;;;;;;;;4998872;28;20567;-79
2024/01/31 10:29:40;;;;;;;7.10;1.50;;;;;;;;;;4996756;28;20474;-79
2024/01/31 10:32:07;;;;;;;2.47;1.63;;;;;;;;;;4996683;28;21384;-78
2024/01/31 10:34:34;;;;;;;3.07;2.53;;;;;;;;;;5008106;28;20466;-78
2024/01/31 10:37:01;;;;;;;5.43;1.43;;;;;;;;;;5008490;28;20469;-79
2024/01/31 10:39:28;;;;;;;2.53;2.17;;;;;;;;;;5001845;28;20835;-83
2024/01/31 10:42:00;;;;;;;5.73;2.00;;;;;;;;;;5000208;28;20484;-80
2024/01/31 10:44:28;;;;;;;6.53;2.10;;;;;;;;;;4985233;28;20526;-78
2024/01/31 10:46:55;;;;;;;5.28;2.80;;;;;;;;;;4997270;28;20467;-79
2024/01/31 10:49:21;;;;;;;8.67;2.30;;;;;;;;;;4993913;28;20716;-78
2024/01/31 10:51:49;;;;;;;7.37;1.90;;;;;;;;;;5014606;28;20885;-78
2024/01/31 10:54:17;;;;;;;3.87;2.00;;;;;;;;;;4986634;28;20482;-78
2024/01/31 10:56:46;;;;;;;2.50;1.83;;;;;;;;;;5006288;28;20461;-79
2024/01/31 10:59:17;;;;;;;5.80;1.80;;;;;;;;;;4992240;28;20484;-78
2024/01/31 11:01:50;;;;;;;4.03;2.37;;;;;;;;;;4990303;28;20556;-78
2024/01/31 11:04:18;;;;;;;5.43;2.17;;;;;;;;;;4987715;28;20546;-81
2024/01/31 11:06:44;;;;;;;3.67;1.88;;;;;;;;;;5005332;28;20551;-79
2024/01/31 11:09:17;;;;;;;5.63;3.03;;;;;;;;;;5012737;28;20234;-79
2024/01/31 11:11:45;;;;;;;6.60;3.73;;;;;;;;;;4999417;28;20997;-78
2024/01/31 11:14:14;;;;;;;4.17;2.87;;;;;;;;;;4992984;28;20499;-79
2024/01/31 11:16:49;;;;;;;9.37;5.23;;;;;;;;;;5002056;28;20496;-78
2024/01/31 11:19:18;;;;;;;4.63;3.73;;;;;;;;;;4971832;28;20504;-79
2024/01/31 11:21:47;;;;;;;6.17;3.87;;;;;;;;;;4968742;28;20552;-79
2024/01/31 11:24:15;;;;;;;6.30;4.88;;;;;;;;;;5002503;28;20908;-79
2024/01/31 11:26:42;;;;;;;6.13;4.30;;;;;;;;;;4999391;28;20297;-80
2024/01/31 11:29:09;;;;;;;8.70;5.00;;;;;;;;;;5007474;28;20502;-78
2024/01/31 11:31:35;;;;;;;4.97;4.37;;;;;;;;;;5007818;28;20538;-79
2024/01/31 11:34:03;;;;;;;7.60;5.43;;;;;;;;;;4996624;28;20544;-78
2024/01/31 11:36:29;;;;;;;7.87;4.37;;;;;;;;;;4982919;28;20470;-79
2024/01/31 11:38:56;;;;;;;5.60;4.50;;;;;;;;;;4997016;28;20513;-78
2024/01/31 11:41:23;;;;;;;6.03;4.00;;;;;;;;;;4991477;28;20563;-79
2024/01/31 11:43:49;;;;;;;7.13;4.43;;;;;;;;;;4985227;28;20499;-78
2024/01/31 11:46:17;;;;;;;8.50;3.93;;;;;;;;;;5006205;28;20842;-78
2024/01/31 11:48:44;;;;;;;9.13;4.20;;;;;;;;;;4995625;28;20476;-78
2024/01/31 11:51:12;;;;;;;7.63;4.00;;;;;;;;;;4981367;28;20515;-79
2024/01/31 11:53:38;;;;;;;5.77;4.47;;;;;;;;;;4986812;28;20482;-79
2024/01/31 11:56:05;;;;;;;6.83;3.50;;;;;;;;;;5005557;28;20499;-78
2024/01/31 11:58:32;;;;;;;7.00;3.27;;;;;;;;;;4989506;28;20482;-83
2024/01/31 12:00:58;;;;;;;12.93;4.40;;;;;;;;;;5011573;28;20563;-79
2024/01/31 12:03:25;;;;;;;4.87;3.53;;;;;;;;;;5005774;28;20493;-79
2024/01/31 12:05:57;;;;;;;6.30;3.40;;;;;;;;;;5014454;28;20492;-79
2024/01/31 12:08:27;;;;;;;5.30;3.63;;;;;;;;;;5006065;28;20918;-78
2024/01/31 12:10:53;;;;;;;3.85;3.40;;;;;;;;;;5006174;28;20468;-79
2024/01/31 12:13:20;;;;;;;7.20;4.00;;;;;;;;;;5001339;28;20667;-79
2024/01/31 12:15:47;;;;;;;12.93;3.93;;;;;;;;;;5026673;28;20884;-79
2024/01/31 12:18:14;;;;;;;8.23;4.10;;;;;;;;;;5010917;28;20464;-79
2024/01/31 12:20:42;;;;;;;11.90;3.93;;;;;;;;;;5021650;28;21304;-78
2024/01/31 12:23:08;;;;;;;5.57;3.70;;;;;;;;;;4992301;28;20564;-78
2024/01/31 12:25:36;;;;;;;6.43;3.50;;;;;;;;;;4982696;28;20490;-79
2024/01/31 12:28:03;;;;;;;4.17;3.77;;;;;;;;;;4958753;28;20471;-82
2024/01/31 12:30:29;;;;;;;11.83;3.57;;;;;;;;;;4977042;28;20504;-81
2024/01/31 12:32:55;;;;;;;3.55;3.25;;;;;;;;;;4982548;28;20475;-79
2024/01/31 12:35:22;;;;;;;6.23;3.60;;;;;;;;;;4999069;28;20310;-79
2024/01/31 12:37:49;;;;;;;4.35;3.30;;;;;;;;;;4997427;28;20472;-78
2024/01/31 12:40:15;;;;;;;8.60;4.20;;;;;;;;;;4992388;28;20485;-79
2024/01/31 12:42:43;;;;;;;6.40;4.27;;;;;;;;;;5003747;28;21017;-79
2024/01/31 12:45:10;;;;;;;5.93;4.17;;;;;;;;;;5015970;28;20569;-78
2024/01/31 12:47:36;;;;;;;8.43;4.30;;;;;;;;;;4998326;28;20497;-79
2024/01/31 12:50:03;;;;;;;6.63;4.60;;;;;;;;;;5000186;28;20849;-80
2024/01/31 12:52:30;;;;;;;9.30;5.10;;;;;;;;;;4993883;28;20471;-80
2024/01/31 12:54:57;;;;;;;3.83;3.53;;;;;;;;;;5000182;28;20503;-78
2024/01/31 12:57:24;;;;;;;8.67;4.80;;;;;;;;;;4995892;28;20552;-78
2024/01/31 12:59:52;;;;;;;5.60;4.47;;;;;;;;;;4964756;28;20552;-79
2024/01/31 13:02:18;;;;;;;6.23;5.00;;;;;;;;;;4994569;28;20481;-80
2024/01/31 13:04:45;;;;;;;6.27;4.53;;;;;;;;;;5008423;28;20545;-84
2024/01/31 13:07:11;;;;;;;6.77;5.50;;;;;;;;;;5009669;28;20468;-79
2024/01/31 13:09:38;;;;;;;10.10;5.83;;;;;;;;;;5015318;28;20470;-83
2024/01/31 13:12:04;;;;;;;9.50;5.63;;;;;;;;;;5003626;28;20468;-79
2024/01/31 13:14:31;;;;;;;8.43;7.40;;;;;;;;;;4987182;28;20565;-79
2024/01/31 13:16:59;;;;;;;9.03;7.47;;;;;;;;;;5000752;28;20957;-80
2024/01/31 13:19:24;;;;;;;7.73;6.93;;;;;;;;;;4991830;28;20572;-79
2024/01/31 13:21:52;;;;;;;10.40;7.63;;;;;;;;;;4987272;28;20566;-79
2024/01/31 13:24:19;;;;;;;8.80;7.90;;;;;;;;;;4974840;28;20228;-79
2024/01/31 13:26:47;;;;;;;10.17;8.23;;;;;;;;;;4988058;28;21016;-81
2024/01/31 13:29:13;;;;;;;10.87;9.20;;;;;;;;;;4983949;28;20565;-79
2024/01/31 13:31:41;;;;;;;9.93;8.87;;;;;;;;;;4971272;28;20469;-80
2024/01/31 13:34:09;;;;;;;10.00;9.10;;;;;;;;;;5004332;28;20538;-79
2024/01/31 13:36:35;;;;;;;9.73;8.63;;;;;;;;;;4986665;28;20550;-79
2024/01/31 13:39:02;;;;;;;11.57;10.37;;;;;;;;;;5016899;28;20462;-87
2024/01/31 13:41:29;;;;;;;11.00;9.77;;;;;;;;;;4999908;28;20524;-79
2024/01/31 13:43:55;;;;;;;13.97;9.90;;;;;;;;;;4987309;28;20495;-79
2024/01/31 13:46:23;;;;;;;10.27;9.13;;;;;;;;;;5000931;28;20485;-79
2024/01/31 13:48:49;;;;;;;13.23;10.13;;;;;;;;;;5017962;28;20528;-79
2024/01/31 13:51:17;;;;;;;12.67;9.80;;;;;;;;;;5008532;28;20712;-78
2024/01/31 13:53:43;;;;;;;10.03;8.53;;;;;;;;;;4987963;28;20532;-80
2024/01/31 13:56:10;;;;;;;9.03;8.10;;;;;;;;;;4983733;28;20496;-79
2024/01/31 13:58:37;;;;;;;10.10;9.10;;;;;;;;;;5005626;28;21181;-79
2024/01/31 14:01:03;;;;;;;9.80;8.50;;;;;;;;;;4991335;28;20556;-79
2024/01/31 14:03:29;;;;;;;9.25;8.35;;;;;;;;;;4998486;28;20497;-79
2024/01/31 14:05:56;;;;;;;8.53;7.63;;;;;;;;;;5015435;28;20218;-79
2024/01/31 14:08:24;;;;;;;10.77;9.40;;;;;;;;;;4989117;28;20946;-79
2024/01/31 14:10:50;;;;;;;10.10;9.10;;;;;;;;;;5007297;28;20995;-79
2024/01/31 14:13:17;;;;;;;11.13;8.87;;;;;;;;;;5018198;28;20560;-86
2024/01/31 14:15:43;;;;;;;9.13;7.97;;;;;;;;;;5011678;28;20463;-78
2024/01/31 14:18:09;;;;;;;10.37;8.67;;;;;;;;;;5005095;28;20991;-79
2024/01/31 14:20:36;;;;;;;9.10;8.30;;;;;;;;;;5001723;28;20472;-78
2024/01/31 14:23:03;;;;;;;7.90;7.17;;;;;;;;;;4994877;28;20246;-79
2024/01/31 14:25:31;;;;;;;8.77;6.80;;;;;;;;;;4998146;28;20544;-78
2024/01/31 14:27:58;;;;;;;9.97;8.03;;;;;;;;;;5009308;28;20840;-79
2024/01/31 14:30:25;;;;;;;8.67;7.07;;;;;;;;;;5002136;28;20509;-78
2024/01/31 14:32:52;;;;;;;8.07;7.20;;;;;;;;;;5001257;28;20464;-78
2024/01/31 14:35:18;;;;;;;9.02;7.75;;;;;;;;;;4995650;28;20472;-80
2024/01/31 14:37:45;;;;;;;8.57;7.63;;;;;;;;;;5002139;28;20228;-79
2024/01/31 14:40:12;;;;;;;10.97;8.13;;;;;;;;;;5013591;28;20990;-79